Am Tubarao — A8ZA9 — position and weather

sailwx.info

Track history (hours):
 
Tides and Currents Weather Stations Pressure Air Temp Water Temp Dewpoint Dewpoint Depression Visibility Wind Speed Wind Dir Waves Ship Positions

Am Tubarao

Last reported at 2016-Nov-21 12:11 UTC. Time now 2016-Dec-05 08:27 UTC.
Position N 37°13' W 001°04'.
Warning: this ship's position is 13 days out of date.

Length 230 m; draft 7.9 m.

Type: Cargo ship. MMSI: 636015171.

Date/timePositionNaut miles runAvg speedWind from/ knotsBaromVisibWave heightAir tempDewpointWater temp
2016-Nov-21 12:11N 37°13' W 001°04'913.3
2016-Nov-21 11:30N 37°19' W 000°55'3912.3
2016-Nov-21 08:19N 37°49' W 000°24'1212.8
2016-Nov-21 07:25N 37°58' W 000°14'12613.5
2016-Nov-20 22:05N 39°40' E 001°21'713.6
2016-Nov-20 21:33N 39°45' E 001°27'5413.6
2016-Nov-20 17:34N 40°28' E 002°11'1313.1
2016-Nov-20 16:33N 40°38' E 002°22'2613.0
2016-Nov-20 14:33N 40°58' E 002°44'17513.4
2016-Nov-20 01:33N 43°22' E 004°58'5 1.0
2016-Nov-19 20:09N 43°26' E 004°53'0 0.0
2016-Nov-19 19:33N 43°26' E 004°53'0 0.0
2016-Nov-19 16:33N 43°26' E 004°53'0 0.0
2016-Nov-19 14:32N 43°26' E 004°53'0 0.0
2016-Nov-19 11:33N 43°26' E 004°53'0 0.0
2016-Nov-19 09:30N 43°26' E 004°53'0 0.0
2016-Nov-19 05:32N 43°26' E 004°53'0 0.0
2016-Nov-19 04:32N 43°26' E 004°53'0 0.0
2016-Nov-19 03:32N 43°26' E 004°53'0 0.0
2016-Nov-18 20:26N 43°26' E 004°53'0 0.0
2016-Nov-18 18:32N 43°26' E 004°53'0 0.0
2016-Nov-18 17:32N 43°26' E 004°53'0 0.0
2016-Nov-18 12:32N 43°26' E 004°53'0 0.0
2016-Nov-18 11:32N 43°26' E 004°53'0 0.0
2016-Nov-18 09:20N 43°26' E 004°53'0 0.0
2016-Nov-18 05:29N 43°26' E 004°53'0 0.0
2016-Nov-18 01:32N 43°26' E 004°53'0 0.0
2016-Nov-17 13:34N 43°26' E 004°53'1 1.2
2016-Nov-17 12:33N 43°24' E 004°53'6 6.1
2016-Nov-17 11:34N 43°21' E 005°00'0 0.0
2016-Nov-17 08:32N 43°21' E 005°00'0 0.0
2016-Nov-17 06:32N 43°21' E 005°00'0 0.0
2016-Nov-17 02:32N 43°21' E 005°00'0 0.0
2016-Nov-16 23:32N 43°21' E 005°00'0 0.0
2016-Nov-16 22:32N 43°21' E 005°00'0 0.0
2016-Nov-16 20:32N 43°21' E 005°00'0 0.0
2016-Nov-16 19:32N 43°21' E 005°00'0 0.0
2016-Nov-16 18:32N 43°21' E 005°00'0 0.0
2016-Nov-16 17:32N 43°21' E 005°00'0 0.0
2016-Nov-16 16:32N 43°21' E 005°00'0 0.0
2016-Nov-16 12:20N 43°21' E 005°00'0 0.0
2016-Nov-16 09:32N 43°21' E 005°00'0 0.1
2016-Nov-16 08:32N 43°21' E 005°00'0 0.0
2016-Nov-16 07:32N 43°21' E 005°00'0 0.0
2016-Nov-16 06:32N 43°21' E 005°00'0 0.0
2016-Nov-16 04:32N 43°21' E 005°00'0 0.0
2016-Nov-16 03:32N 43°21' E 005°00'0 0.0
2016-Nov-16 02:32N 43°21' E 005°00'0 0.0
2016-Nov-16 01:32N 43°21' E 005°00'0 0.0
2016-Nov-15 21:32N 43°21' E 005°00'0 0.0
2016-Nov-15 19:32N 43°21' E 005°00'0 0.0
2016-Nov-15 18:32N 43°21' E 005°00'0 0.0
2016-Nov-15 13:32N 43°21' E 005°00'0 0.0
2016-Nov-15 12:32N 43°21' E 005°00'0 0.0
2016-Nov-15 11:32N 43°21' E 005°00'0 0.0
2016-Nov-15 10:32N 43°21' E 005°00'0 0.0
2016-Nov-15 07:32N 43°21' E 005°00'0 0.0
2016-Nov-15 06:32N 43°21' E 005°00'0 0.0
2016-Nov-15 05:53N 43°21' E 005°00'0 0.0
2016-Nov-15 03:32N 43°21' E 005°00'0 0.0
2016-Nov-15 02:32N 43°21' E 005°00'0 0.0
2016-Nov-15 00:32N 43°21' E 005°00'0 0.0
2016-Nov-14 23:41N 43°21' E 005°00'0 0.0
2016-Nov-14 19:32N 43°21' E 005°00'0 0.0
2016-Nov-14 17:32N 43°21' E 005°00'0 0.0
2016-Nov-14 16:32N 43°21' E 005°00'0 0.0
2016-Nov-14 15:32N 43°21' E 005°00'0 0.0
2016-Nov-14 11:32N 43°21' E 005°00'0 0.0
2016-Nov-14 08:32N 43°21' E 005°00'0 0.0
2016-Nov-14 05:32N 43°21' E 005°00'0 0.0
2016-Nov-14 00:32N 43°21' E 005°00'0 0.0
2016-Nov-13 23:32N 43°21' E 005°00'0 0.0
2016-Nov-13 22:32N 43°21' E 005°00'0 0.0
2016-Nov-13 19:33N 43°21' E 005°00'0 0.0
2016-Nov-13 18:33N 43°21' E 005°00'0 0.5
2016-Nov-13 17:33N 43°21' E 004°60'13 6.3
2016-Nov-13 15:33N 43°08' E 005°04'17 8.5
2016-Nov-13 13:33N 42°55' E 004°49'154 9.6
2016-Nov-12 21:32N 40°54' E 002°40'2010.0
2016-Nov-12 19:33N 40°39' E 002°23'2110.3
2016-Nov-12 17:33N 40°23' E 002°06'1010.0
2016-Nov-12 16:33N 40°15' E 001°57'10 9.8
2016-Nov-12 15:33N 40°08' E 001°49'1010.0
2016-Nov-12 14:33N 39°60' E 001°41'1110.4
2016-Nov-12 13:31N 39°51' E 001°32'177 9.7
2016-Nov-11 19:21N 37°27' W 000°39'  
Track history (hours):
 
Tides and Currents Weather Stations Pressure Air Temp Water Temp Dewpoint Dewpoint Depression Visibility Wind Speed Wind Dir Waves Ship Positions

Am Tubarao

Last reported at 2016-Nov-21 12:11 UTC. Time now 2016-Dec-05 08:27 UTC.
Position N 37°13' W 001°04'.
Warning: this ship's position is 13 days out of date.

Length 230 m; draft 7.9 m.

Type: Cargo ship. MMSI: 636015171.

Date/timePositionNaut miles runAvg speedWind from/ knotsBaromVisibWave heightAir tempDewpointWater temp
2016-Nov-21 12:11N 37°13' W 001°04'913.3
2016-Nov-21 11:30N 37°19' W 000°55'3912.3
2016-Nov-21 08:19N 37°49' W 000°24'1212.8
2016-Nov-21 07:25N 37°58' W 000°14'12613.5
2016-Nov-20 22:05N 39°40' E 001°21'713.6
2016-Nov-20 21:33N 39°45' E 001°27'5413.6
2016-Nov-20 17:34N 40°28' E 002°11'1313.1
2016-Nov-20 16:33N 40°38' E 002°22'2613.0
2016-Nov-20 14:33N 40°58' E 002°44'17513.4
2016-Nov-20 01:33N 43°22' E 004°58'5 1.0
2016-Nov-19 20:09N 43°26' E 004°53'0 0.0
2016-Nov-19 19:33N 43°26' E 004°53'0 0.0
2016-Nov-19 16:33N 43°26' E 004°53'0 0.0
2016-Nov-19 14:32N 43°26' E 004°53'0 0.0
2016-Nov-19 11:33N 43°26' E 004°53'0 0.0
2016-Nov-19 09:30N 43°26' E 004°53'0 0.0
2016-Nov-19 05:32N 43°26' E 004°53'0 0.0
2016-Nov-19 04:32N 43°26' E 004°53'0 0.0
2016-Nov-19 03:32N 43°26' E 004°53'0 0.0
2016-Nov-18 20:26N 43°26' E 004°53'0 0.0
2016-Nov-18 18:32N 43°26' E 004°53'0 0.0
2016-Nov-18 17:32N 43°26' E 004°53'0 0.0
2016-Nov-18 12:32N 43°26' E 004°53'0 0.0
2016-Nov-18 11:32N 43°26' E 004°53'0 0.0
2016-Nov-18 09:20N 43°26' E 004°53'0 0.0
2016-Nov-18 05:29N 43°26' E 004°53'0 0.0
2016-Nov-18 01:32N 43°26' E 004°53'0 0.0
2016-Nov-17 13:34N 43°26' E 004°53'1 1.2
2016-Nov-17 12:33N 43°24' E 004°53'6 6.1
2016-Nov-17 11:34N 43°21' E 005°00'0 0.0
2016-Nov-17 08:32N 43°21' E 005°00'0 0.0
2016-Nov-17 06:32N 43°21' E 005°00'0 0.0
2016-Nov-17 02:32N 43°21' E 005°00'0 0.0
2016-Nov-16 23:32N 43°21' E 005°00'0 0.0
2016-Nov-16 22:32N 43°21' E 005°00'0 0.0
2016-Nov-16 20:32N 43°21' E 005°00'0 0.0
2016-Nov-16 19:32N 43°21' E 005°00'0 0.0
2016-Nov-16 18:32N 43°21' E 005°00'0 0.0
2016-Nov-16 17:32N 43°21' E 005°00'0 0.0
2016-Nov-16 16:32N 43°21' E 005°00'0 0.0
2016-Nov-16 12:20N 43°21' E 005°00'0 0.0
2016-Nov-16 09:32N 43°21' E 005°00'0 0.1
2016-Nov-16 08:32N 43°21' E 005°00'0 0.0
2016-Nov-16 07:32N 43°21' E 005°00'0 0.0
2016-Nov-16 06:32N 43°21' E 005°00'0 0.0
2016-Nov-16 04:32N 43°21' E 005°00'0 0.0
2016-Nov-16 03:32N 43°21' E 005°00'0 0.0
2016-Nov-16 02:32N 43°21' E 005°00'0 0.0
2016-Nov-16 01:32N 43°21' E 005°00'0 0.0
2016-Nov-15 21:32N 43°21' E 005°00'0 0.0
2016-Nov-15 19:32N 43°21' E 005°00'0 0.0
2016-Nov-15 18:32N 43°21' E 005°00'0 0.0
2016-Nov-15 13:32N 43°21' E 005°00'0 0.0
2016-Nov-15 12:32N 43°21' E 005°00'0 0.0
2016-Nov-15 11:32N 43°21' E 005°00'0 0.0
2016-Nov-15 10:32N 43°21' E 005°00'0 0.0
2016-Nov-15 07:32N 43°21' E 005°00'0 0.0
2016-Nov-15 06:32N 43°21' E 005°00'0 0.0
2016-Nov-15 05:53N 43°21' E 005°00'0 0.0
2016-Nov-15 03:32N 43°21' E 005°00'0 0.0
2016-Nov-15 02:32N 43°21' E 005°00'0 0.0
2016-Nov-15 00:32N 43°21' E 005°00'0 0.0
2016-Nov-14 23:41N 43°21' E 005°00'0 0.0
2016-Nov-14 19:32N 43°21' E 005°00'0 0.0
2016-Nov-14 17:32N 43°21' E 005°00'0 0.0
2016-Nov-14 16:32N 43°21' E 005°00'0 0.0
2016-Nov-14 15:32N 43°21' E 005°00'0 0.0
2016-Nov-14 11:32N 43°21' E 005°00'0 0.0
2016-Nov-14 08:32N 43°21' E 005°00'0 0.0
2016-Nov-14 05:32N 43°21' E 005°00'0 0.0
2016-Nov-14 00:32N 43°21' E 005°00'0 0.0
2016-Nov-13 23:32N 43°21' E 005°00'0 0.0
2016-Nov-13 22:32N 43°21' E 005°00'0 0.0
2016-Nov-13 19:33N 43°21' E 005°00'0 0.0
2016-Nov-13 18:33N 43°21' E 005°00'0 0.5
2016-Nov-13 17:33N 43°21' E 004°60'13 6.3
2016-Nov-13 15:33N 43°08' E 005°04'17 8.5
2016-Nov-13 13:33N 42°55' E 004°49'154 9.6
2016-Nov-12 21:32N 40°54' E 002°40'2010.0
2016-Nov-12 19:33N 40°39' E 002°23'2110.3
2016-Nov-12 17:33N 40°23' E 002°06'1010.0
2016-Nov-12 16:33N 40°15' E 001°57'10 9.8
2016-Nov-12 15:33N 40°08' E 001°49'1010.0
2016-Nov-12 14:33N 39°60' E 001°41'1110.4
2016-Nov-12 13:31N 39°51' E 001°32'177 9.7
2016-Nov-11 19:21N 37°27' W 000°39'  

Dump ship's entire track history